Dalark, Arkansas
Current Conditions -  °F | °C
As of 4:56 AM on Friday 31 Oct 2014 (Local Time) from KADF Reporting Station
Clear Clear  
Wind Chill: 53°   Ceiling: Unl
Heat Index: 53°   Visibility: 10mi
Dew Point: 48°   Wind: 5mph
Humidity: 83%   Direction: 310°NW
Pressure: 30.09"   Gusts: NA
Location:  34.0941°N, 93.0475°W
Report Text: KADF 310956Z AUTO 31004KT 10SM CLR 12/09 A3009 RMK AO2 T01160088 SLP205
Loading
Personal Weather Stations






























Interactive Weather Map
Tropical Storm Tracking
New forecast layout! Learn more

10-Day Weather Forecast

Advertisements
Track Severe Weather on mobile